Turkey Ridge, South Dakota
Current Conditions -  °F | °C
As of 3:15 PM on Tuesday 21 Oct 2014 (Local Time) from KYKN Reporting Station
Clear Clear  
Wind Chill: 79°   Ceiling: Unl
Heat Index: 79°   Visibility: 9mi
Dew Point: 45°   Wind: 15mph
Humidity: 30%   Direction: 180°S
Pressure: 29.95"   Gusts: 21mph
Location:  43.2923°N, 97.2262°W
Report Text: KYKN 212015Z AUTO 18013G18KT 9SM CLR 26/07 A2995 RMK AO1
Loading
Personal Weather Stations






























Interactive Weather Map
Tropical Storm Tracking
New forecast layout! Learn more

10-Day Weather Forecast

Advertisements
Track Severe Weather on mobile